createdAt,value
2022-08-30T00:00:00.388Z,9.20
2022-08-30T00:02:29.243Z,10.20
2022-08-30T00:05:01.535Z,9.80
2022-08-30T00:07:30.827Z,10.60
2022-08-30T00:10:00.570Z,13.80
2022-08-30T00:12:29.375Z,11.20
2022-08-30T00:14:58.231Z,11.00
2022-08-30T00:17:26.655Z,12.60
2022-08-30T00:19:56.234Z,12.20
2022-08-30T00:22:24.900Z,9.60
2022-08-30T00:24:53.223Z,10.40
2022-08-30T00:27:23.068Z,12.60
2022-08-30T00:29:51.702Z,10.20
2022-08-30T00:32:21.446Z,8.00
2022-08-30T00:34:50.100Z,8.20
2022-08-30T00:37:19.190Z,10.40
2022-08-30T00:39:47.886Z,13.40
2022-08-30T00:42:17.873Z,11.80
2022-08-30T00:44:48.780Z,9.40
2022-08-30T00:47:17.731Z,9.20
2022-08-30T00:49:49.022Z,11.60
2022-08-30T00:52:19.860Z,9.60
2022-08-30T00:54:49.396Z,10.80
2022-08-30T00:57:18.253Z,13.00
2022-08-30T00:59:50.664Z,11.00
2022-08-30T01:02:23.084Z,12.00
2022-08-30T01:04:52.690Z,9.20
2022-08-30T01:07:21.076Z,10.40
2022-08-30T01:09:49.436Z,9.80
2022-08-30T01:12:18.454Z,9.40
2022-08-30T01:14:48.585Z,10.60
2022-08-30T01:17:18.516Z,13.80
2022-08-30T01:19:55.151Z,9.60
2022-08-30T01:22:33.263Z,10.60
2022-08-30T01:25:04.245Z,10.60
2022-08-30T01:27:39.510Z,9.40
2022-08-30T01:30:09.962Z,12.40
2022-08-30T01:32:41.583Z,10.40
2022-08-30T01:35:11.688Z,11.60
2022-08-30T01:37:40.399Z,11.20
2022-08-30T01:40:11.922Z,12.80
2022-08-30T01:42:40.803Z,11.40
2022-08-30T01:45:10.696Z,12.40
2022-08-30T01:47:40.422Z,14.20
2022-08-30T01:50:10.822Z,14.80
2022-08-30T01:52:39.800Z,13.40
2022-08-30T01:55:10.935Z,15.00
2022-08-30T01:57:39.700Z,12.80
2022-08-30T02:00:11.006Z,15.60
2022-08-30T02:02:42.268Z,14.20
2022-08-30T02:05:11.436Z,13.20
2022-08-30T02:07:39.904Z,8.00
2022-08-30T02:10:11.249Z,12.40
2022-08-30T02:12:39.748Z,13.40
2022-08-30T02:15:09.904Z,12.80
2022-08-30T02:17:38.636Z,11.40
2022-08-30T02:20:08.513Z,13.40
2022-08-30T02:22:36.967Z,11.60
2022-08-30T02:25:07.292Z,13.60
2022-08-30T02:27:46.655Z,12.00
2022-08-30T02:30:15.473Z,14.00
2022-08-30T02:32:43.937Z,16.60
2022-08-30T02:35:12.365Z,16.20
2022-08-30T02:37:41.136Z,14.00
2022-08-30T02:40:11.068Z,14.20
2022-08-30T02:42:39.909Z,13.40
2022-08-30T02:45:11.008Z,13.60
2022-08-30T02:47:42.602Z,16.40
2022-08-30T02:50:15.314Z,14.00
2022-08-30T02:52:48.118Z,14.60
2022-08-30T02:55:17.842Z,15.20
2022-08-30T02:57:46.638Z,13.40
2022-08-30T03:00:19.963Z,14.40
2022-08-30T03:02:49.388Z,14.60
2022-08-30T03:05:18.484Z,13.80
2022-08-30T03:07:47.629Z,14.80
2022-08-30T03:10:17.158Z,27.40
2022-08-30T03:12:45.540Z,48.25
2022-08-30T03:15:14.280Z,15.80
2022-08-30T03:17:44.555Z,15.80
2022-08-30T03:20:14.035Z,12.20
2022-08-30T03:22:42.512Z,13.00
2022-08-30T03:25:11.564Z,11.40
2022-08-30T03:27:40.081Z,13.00
2022-08-30T03:30:10.167Z,14.40
2022-08-30T03:32:38.954Z,12.60
2022-08-30T03:35:09.704Z,14.00
2022-08-30T03:37:38.216Z,13.60
2022-08-30T03:40:09.325Z,14.00
2022-08-30T03:42:39.638Z,12.60
2022-08-30T03:45:13.284Z,14.60
2022-08-30T03:47:42.288Z,9.80
2022-08-30T03:50:13.642Z,13.20
2022-08-30T03:52:42.358Z,28.40
2022-08-30T03:55:10.911Z,16.20
2022-08-30T03:57:43.528Z,13.60
2022-08-30T04:00:14.376Z,15.40
2022-08-30T04:02:43.185Z,15.20
2022-08-30T04:05:16.427Z,12.40
2022-08-30T04:07:47.628Z,17.00
2022-08-30T04:10:16.272Z,20.80
2022-08-30T04:12:49.372Z,17.40
2022-08-30T04:15:20.062Z,14.20
2022-08-30T04:17:49.674Z,15.40
2022-08-30T04:20:19.494Z,38.50
2022-08-30T04:22:48.690Z,75.25
2022-08-30T04:25:17.757Z,17.20
2022-08-30T04:27:46.885Z,16.60
2022-08-30T04:30:17.820Z,14.60
2022-08-30T04:32:46.703Z,15.40
2022-08-30T04:35:15.829Z,16.80
2022-08-30T04:37:45.801Z,17.20
2022-08-30T04:40:15.223Z,14.00
2022-08-30T04:42:44.477Z,16.20
2022-08-30T04:45:16.244Z,13.40
2022-08-30T04:47:45.536Z,17.20
2022-08-30T04:50:18.556Z,18.00
2022-08-30T04:52:48.735Z,17.00
2022-08-30T04:55:20.271Z,14.40
2022-08-30T04:57:49.549Z,16.20
2022-08-30T05:00:20.792Z,21.40
2022-08-30T05:02:50.648Z,15.60
2022-08-30T05:05:37.593Z,19.20
2022-08-30T05:08:07.932Z,16.00
2022-08-30T05:10:40.368Z,16.00
2022-08-30T05:13:09.661Z,15.20
2022-08-30T05:15:39.764Z,18.00
2022-08-30T05:18:08.702Z,17.40
2022-08-30T05:20:43.026Z,17.40
2022-08-30T05:23:13.257Z,14.40
2022-08-30T05:25:43.243Z,15.40
2022-08-30T05:28:12.306Z,18.80
2022-08-30T05:30:41.655Z,18.20
2022-08-30T05:33:10.034Z,14.60
2022-08-30T05:35:40.872Z,14.40
2022-08-30T05:38:09.344Z,15.00
2022-08-30T05:40:43.703Z,17.20
2022-08-30T05:43:14.249Z,13.20
2022-08-30T05:45:42.701Z,16.60
2022-08-30T05:48:14.938Z,17.40
2022-08-30T05:50:43.888Z,17.40
2022-08-30T05:53:12.241Z,13.40
2022-08-30T05:55:43.535Z,17.60
2022-08-30T05:58:12.196Z,19.00
2022-08-30T06:00:40.691Z,19.80
2022-08-30T06:03:12.138Z,19.40
2022-08-30T06:05:40.966Z,20.60
2022-08-30T06:08:09.534Z,18.00
2022-08-30T06:10:38.082Z,17.20
2022-08-30T06:13:08.087Z,17.60
2022-08-30T06:15:36.560Z,19.40
2022-08-30T06:18:05.424Z,17.60
2022-08-30T06:20:35.123Z,22.20
2022-08-30T06:23:03.504Z,17.00
2022-08-30T06:25:41.294Z,14.40
2022-08-30T06:28:13.201Z,15.80
2022-08-30T06:30:43.153Z,17.60
2022-08-30T06:33:12.161Z,16.60
2022-08-30T06:35:56.774Z,16.40
2022-08-30T06:38:28.309Z,18.60
2022-08-30T06:40:56.745Z,20.40
2022-08-30T06:43:26.852Z,17.20
2022-08-30T06:45:56.328Z,21.20
2022-08-30T06:48:24.773Z,20.80
2022-08-30T06:50:54.987Z,21.40
2022-08-30T06:53:24.550Z,18.80
2022-08-30T06:55:58.601Z,16.80
2022-08-30T06:58:29.736Z,14.00
2022-08-30T07:00:59.350Z,20.00
2022-08-30T07:03:28.506Z,18.40
2022-08-30T07:05:57.891Z,18.20
2022-08-30T07:08:27.246Z,19.20
2022-08-30T07:10:56.333Z,16.20
2022-08-30T07:13:25.734Z,22.00
2022-08-30T07:15:55.757Z,20.00
2022-08-30T07:18:47.632Z,22.40
2022-08-30T07:21:18.947Z,21.00
2022-08-30T07:23:53.246Z,21.40
2022-08-30T07:26:25.525Z,22.20
2022-08-30T07:28:56.141Z,21.00
2022-08-30T07:31:27.470Z,22.00
2022-08-30T07:33:56.799Z,16.60
2022-08-30T07:36:25.943Z,21.40
2022-08-30T07:38:54.982Z,22.00
2022-08-30T07:41:27.526Z,20.80
2022-08-30T07:43:57.085Z,24.40
2022-08-30T07:46:27.492Z,21.80
2022-08-30T07:48:56.331Z,18.20
2022-08-30T07:51:27.183Z,21.40
2022-08-30T07:53:57.180Z,22.60
2022-08-30T07:56:26.278Z,25.40
2022-08-30T07:58:55.030Z,24.60
2022-08-30T08:01:24.686Z,23.00
2022-08-30T08:03:54.531Z,22.00
2022-08-30T08:06:24.377Z,25.40
2022-08-30T08:08:54.273Z,27.40
2022-08-30T08:11:28.463Z,24.40
2022-08-30T08:14:00.255Z,23.00
2022-08-30T08:16:30.300Z,24.00
2022-08-30T08:19:00.272Z,21.40
2022-08-30T08:21:29.619Z,20.60
2022-08-30T08:23:57.978Z,20.60
2022-08-30T08:26:26.451Z,23.80
2022-08-30T08:28:55.078Z,20.60
2022-08-30T08:31:31.962Z,26.40
2022-08-30T08:34:05.863Z,24.00
2022-08-30T08:36:35.852Z,23.60
2022-08-30T08:39:05.905Z,24.00
2022-08-30T08:41:46.600Z,33.50
2022-08-30T08:44:29.259Z,24.00
2022-08-30T08:47:12.420Z,22.00
2022-08-30T08:49:47.269Z,27.60
2022-08-30T08:52:40.015Z,25.40
2022-08-30T08:55:11.479Z,20.80
2022-08-30T08:57:40.481Z,26.20
2022-08-30T09:00:11.990Z,24.60
2022-08-30T09:02:43.888Z,26.40
2022-08-30T09:05:18.641Z,31.50
2022-08-30T09:07:52.423Z,28.80
2022-08-30T09:10:40.409Z,27.20
2022-08-30T09:13:13.461Z,28.60
2022-08-30T09:15:43.019Z,28.80
2022-08-30T09:18:19.389Z,28.20
2022-08-30T09:20:52.418Z,28.60
2022-08-30T09:23:28.499Z,28.60
2022-08-30T09:25:59.345Z,24.40
2022-08-30T09:28:31.417Z,27.00
2022-08-30T09:31:03.781Z,26.60
2022-08-30T09:33:33.135Z,25.40
2022-08-30T09:36:17.508Z,26.40
2022-08-30T09:38:46.397Z,23.60
2022-08-30T09:41:30.534Z,28.50
2022-08-30T09:44:09.243Z,29.60
2022-08-30T09:46:46.341Z,27.00
2022-08-30T09:49:35.040Z,25.40
2022-08-30T09:52:13.966Z,27.00
2022-08-30T09:54:54.923Z,26.60
2022-08-30T09:57:36.781Z,32.00
2022-08-30T10:00:09.811Z,25.80
2022-08-30T10:03:00.693Z,28.40
2022-08-30T10:05:37.661Z,26.40
2022-08-30T10:08:17.882Z,27.60
2022-08-30T10:10:52.587Z,25.80
2022-08-30T10:13:53.607Z,24.00
2022-08-30T10:16:36.077Z,27.40
2022-08-30T10:19:17.330Z,28.20
2022-08-30T10:21:52.490Z,25.80
2022-08-30T10:24:33.334Z,27.20
2022-08-30T10:27:09.011Z,28.00
2022-08-30T10:29:44.012Z,27.20
2022-08-30T10:32:20.279Z,28.40
2022-08-30T10:34:53.959Z,26.00
2022-08-30T10:37:27.614Z,24.60
2022-08-30T10:40:22.247Z,24.40
2022-08-30T10:42:54.057Z,27.40
2022-08-30T10:45:23.969Z,29.25
2022-08-30T10:48:01.548Z,21.80
2022-08-30T10:50:38.436Z,25.00
2022-08-30T10:53:15.513Z,25.20
2022-08-30T10:55:52.791Z,24.00
2022-08-30T10:58:21.888Z,25.60
2022-08-30T11:01:07.822Z,21.80
2022-08-30T11:04:05.428Z,23.80
2022-08-30T11:06:41.807Z,25.00
2022-08-30T11:09:32.895Z,27.00
2022-08-30T11:12:25.073Z,27.40
2022-08-30T11:14:56.241Z,23.60
2022-08-30T11:17:32.292Z,22.60
2022-08-30T11:20:03.493Z,23.80
2022-08-30T11:22:38.787Z,22.20
2022-08-30T11:25:15.101Z,22.60
2022-08-30T11:27:48.697Z,23.60
2022-08-30T11:30:53.363Z,28.40
2022-08-30T11:33:45.568Z,24.40
2022-08-30T11:36:48.223Z,27.75
2022-08-30T11:39:44.468Z,26.50
2022-08-30T11:42:29.344Z,20.20
2022-08-30T11:45:45.940Z,26.50
2022-08-30T11:48:54.412Z,25.40
2022-08-30T11:52:08.320Z,23.60
2022-08-30T11:55:00.059Z,17.80
2022-08-30T11:57:37.642Z,22.80
2022-08-30T12:00:11.518Z,20.20
2022-08-30T12:02:56.667Z,23.00
2022-08-30T12:06:00.455Z,26.20
2022-08-30T12:09:02.227Z,23.60
2022-08-30T12:12:05.829Z,22.40
2022-08-30T12:14:41.352Z,22.20
2022-08-30T12:17:39.820Z,23.00
2022-08-30T12:20:17.391Z,24.00
2022-08-30T12:22:46.814Z,20.20
2022-08-30T12:25:25.137Z,28.25
2022-08-30T12:28:14.189Z,22.80
2022-08-30T12:30:42.849Z,19.40
2022-08-30T12:33:29.263Z,21.00
2022-08-30T12:36:01.375Z,24.50
2022-08-30T12:38:30.997Z,21.40
2022-08-30T12:41:05.691Z,24.20
2022-08-30T12:43:40.777Z,24.00
2022-08-30T12:46:15.209Z,19.40
2022-08-30T12:48:46.108Z,18.40
2022-08-30T12:51:37.183Z,18.20
2022-08-30T12:54:10.456Z,20.60
2022-08-30T12:57:14.030Z,23.40
2022-08-30T12:59:56.722Z,20.00
2022-08-30T13:02:30.007Z,16.40
2022-08-30T13:04:59.084Z,25.25
2022-08-30T13:07:36.211Z,22.40
2022-08-30T13:10:20.011Z,18.60
2022-08-30T13:13:02.731Z,22.00
2022-08-30T13:15:33.750Z,20.20
2022-08-30T13:18:13.670Z,21.40
2022-08-30T13:20:48.030Z,20.40
2022-08-30T13:23:25.164Z,19.20
2022-08-30T13:25:53.844Z,22.20
2022-08-30T13:28:22.357Z,17.80
2022-08-30T13:30:50.765Z,15.80
2022-08-30T13:33:20.500Z,24.50
2022-08-30T13:35:49.451Z,18.20
2022-08-30T13:38:18.354Z,21.00
2022-08-30T13:40:49.543Z,20.00
2022-08-30T13:43:18.304Z,21.20
2022-08-30T13:45:47.838Z,16.20
2022-08-30T13:48:17.525Z,18.20
2022-08-30T13:50:55.429Z,17.60
2022-08-30T13:56:14.440Z,19.80
2022-08-30T13:58:42.932Z,21.00
2022-08-30T14:01:11.493Z,21.20
2022-08-30T14:04:13.214Z,18.20
2022-08-30T14:06:33.967Z,22.40
2022-08-30T14:09:04.936Z,21.60
2022-08-30T14:11:35.959Z,22.80
2022-08-30T14:14:36.485Z,22.80
2022-08-30T14:16:54.028Z,19.00
2022-08-30T14:19:22.802Z,26.60
2022-08-30T14:21:51.606Z,23.40
2022-08-30T14:24:21.574Z,23.80
2022-08-30T14:26:53.559Z,29.75
2022-08-30T14:29:26.109Z,25.00
2022-08-30T14:31:55.167Z,25.00
2022-08-30T14:34:24.156Z,15.75
2022-08-30T14:36:52.680Z,26.00
2022-08-30T14:39:22.408Z,23.60
2022-08-30T14:41:55.253Z,26.50
2022-08-30T14:44:25.608Z,23.00
2022-08-30T14:46:56.155Z,22.00
2022-08-30T14:49:25.317Z,22.80
2022-08-30T14:51:55.636Z,22.60
2022-08-30T14:54:27.776Z,23.40
2022-08-30T14:56:58.944Z,27.25
2022-08-30T14:59:28.346Z,23.20
2022-08-30T15:01:56.911Z,20.80
2022-08-30T15:04:25.751Z,22.40
2022-08-30T15:06:54.764Z,25.20
2022-08-30T15:09:25.065Z,23.80
2022-08-30T15:11:55.144Z,23.80
2022-08-30T15:14:29.298Z,22.00
2022-08-30T15:16:59.347Z,35.00
2022-08-30T15:19:28.908Z,29.75
2022-08-30T15:22:01.406Z,22.40
2022-08-30T15:24:32.515Z,30.00
2022-08-30T15:27:01.937Z,29.50
2022-08-30T15:29:32.264Z,15.80
2022-08-30T15:32:02.164Z,19.40
2022-08-30T15:34:32.029Z,25.25
2022-08-30T15:37:01.128Z,22.80
2022-08-30T15:39:30.124Z,24.60
2022-08-30T15:42:00.921Z,23.25
2022-08-30T15:44:34.317Z,22.60
2022-08-30T15:47:03.266Z,18.40
2022-08-30T15:49:32.281Z,24.60
2022-08-30T15:52:02.853Z,22.00
2022-08-30T15:54:31.830Z,18.40
2022-08-30T15:57:01.349Z,19.80
2022-08-30T15:59:33.146Z,32.50
2022-08-30T16:02:01.879Z,31.75
2022-08-30T16:04:30.788Z,22.00
2022-08-30T16:06:59.788Z,21.40
2022-08-30T16:09:29.842Z,21.60
2022-08-30T16:12:01.153Z,46.00
2022-08-30T16:14:30.249Z,56.50
2022-08-30T16:17:01.068Z,24.50
2022-08-30T16:19:30.968Z,19.20
2022-08-30T16:22:00.938Z,19.80
2022-08-30T16:24:29.739Z,20.60
2022-08-30T16:26:58.274Z,19.80
2022-08-30T16:29:26.943Z,21.40
2022-08-30T16:31:56.738Z,17.00
2022-08-30T16:34:27.633Z,18.00
2022-08-30T16:36:56.334Z,17.40
2022-08-30T16:39:25.034Z,16.00
2022-08-30T16:41:53.672Z,0.80
2022-08-30T16:44:22.492Z,17.60
2022-08-30T16:46:58.582Z,18.00
2022-08-30T16:49:28.841Z,21.60
2022-08-30T16:51:57.843Z,36.75
2022-08-30T16:54:27.189Z,31.75
2022-08-30T16:56:56.292Z,24.00
2022-08-30T16:59:25.744Z,19.80
2022-08-30T17:01:54.531Z,21.40
2022-08-30T17:04:23.355Z,18.40
2022-08-30T17:06:55.196Z,21.00
2022-08-30T17:09:23.727Z,20.40
2022-08-30T17:11:54.146Z,23.20
2022-08-30T17:14:27.877Z,22.60
2022-08-30T17:17:00.368Z,19.60
2022-08-30T17:19:30.069Z,20.80
2022-08-30T17:22:00.788Z,23.80
2022-08-30T17:24:29.732Z,43.00
2022-08-30T17:26:58.642Z,44.25
2022-08-30T17:29:27.356Z,21.60
2022-08-30T17:31:56.978Z,23.00
2022-08-30T17:34:26.807Z,49.75
2022-08-30T17:36:58.250Z,39.50
2022-08-30T17:39:30.152Z,24.20
2022-08-30T17:42:00.921Z,24.60
2022-08-30T17:44:32.723Z,22.20
2022-08-30T17:47:01.818Z,20.80
2022-08-30T17:49:33.274Z,22.60
2022-08-30T17:52:02.999Z,23.60
2022-08-30T17:54:35.360Z,25.00
2022-08-30T17:57:10.739Z,31.25
2022-08-30T17:59:40.791Z,24.40
2022-08-30T18:02:11.156Z,26.25
2022-08-30T18:04:41.762Z,30.50
2022-08-30T18:07:11.987Z,27.20
2022-08-30T18:09:44.104Z,30.75
2022-08-30T18:12:14.112Z,26.25
2022-08-30T18:14:42.699Z,29.50
2022-08-30T18:17:11.481Z,28.80
2022-08-30T18:19:46.038Z,24.40
2022-08-30T18:22:16.503Z,23.00
2022-08-30T18:24:47.765Z,22.40
2022-08-30T18:27:16.567Z,20.80
2022-08-30T18:29:45.542Z,21.60
2022-08-30T18:32:14.428Z,29.00
2022-08-30T18:34:43.092Z,21.40
2022-08-30T18:37:14.605Z,19.40
2022-08-30T18:39:48.423Z,22.80
2022-08-30T18:42:19.102Z,23.00
2022-08-30T18:44:49.676Z,20.00
2022-08-30T18:47:18.670Z,19.80
2022-08-30T18:49:54.469Z,19.60
2022-08-30T18:52:23.495Z,16.60
2022-08-30T18:54:54.387Z,18.20
2022-08-30T18:57:27.314Z,16.80
2022-08-30T18:59:56.920Z,23.40
2022-08-30T19:02:27.804Z,26.80
2022-08-30T19:04:56.596Z,19.00
2022-08-30T19:07:28.882Z,17.60
2022-08-30T19:10:05.160Z,19.20
2022-08-30T19:12:33.900Z,18.20
2022-08-30T19:15:10.827Z,51.75
2022-08-30T19:17:41.853Z,42.75
2022-08-30T19:20:12.238Z,27.00
2022-08-30T19:25:31.237Z,20.20
2022-08-30T19:27:59.812Z,24.00
2022-08-30T19:30:30.234Z,19.40
2022-08-30T19:32:59.382Z,18.40
2022-08-30T19:35:30.081Z,17.00
2022-08-30T19:37:59.745Z,12.60
2022-08-30T19:40:28.627Z,17.00
2022-08-30T19:42:59.048Z,16.60
2022-08-30T19:45:27.733Z,20.80
2022-08-30T19:47:57.819Z,20.40
2022-08-30T19:50:26.815Z,24.00
2022-08-30T19:52:55.420Z,20.40
2022-08-30T19:55:28.593Z,23.20
2022-08-30T19:58:01.644Z,27.25
2022-08-30T20:00:31.311Z,30.00
2022-08-30T20:03:01.548Z,22.60
2022-08-30T20:05:30.482Z,20.00
2022-08-30T20:07:59.594Z,27.00
2022-08-30T20:10:28.269Z,24.20
2022-08-30T20:12:56.761Z,23.20
2022-08-30T20:15:27.089Z,25.00
2022-08-30T20:18:06.043Z,20.20
2022-08-30T20:20:36.631Z,20.40
2022-08-30T20:23:06.370Z,19.60
2022-08-30T20:24:33.334Z,24.00
2022-08-30T20:25:37.863Z,19.00
2022-08-30T20:28:07.099Z,17.20
2022-08-30T20:30:37.281Z,20.20
2022-08-30T20:33:08.460Z,14.80
2022-08-30T20:35:38.590Z,18.00
2022-08-30T20:38:07.313Z,18.00
2022-08-30T20:40:37.252Z,17.00
2022-08-30T20:43:06.638Z,18.40
2022-08-30T20:45:36.913Z,17.00
2022-08-30T20:48:05.854Z,18.80
2022-08-30T20:50:34.547Z,19.60
2022-08-30T20:53:03.031Z,17.40
2022-08-30T20:55:31.511Z,21.20
2022-08-30T20:58:01.013Z,19.00
2022-08-30T21:00:29.508Z,21.20
2022-08-30T21:02:59.490Z,16.00
2022-08-30T21:05:30.089Z,16.00
2022-08-30T21:07:58.531Z,18.00
2022-08-30T21:10:27.383Z,21.20
2022-08-30T21:12:56.064Z,17.40
2022-08-30T21:15:37.176Z,20.40
2022-08-30T21:18:08.379Z,20.00
2022-08-30T21:20:37.137Z,21.80
2022-08-30T21:23:05.555Z,28.20
2022-08-30T21:25:34.315Z,33.00
2022-08-30T21:28:03.054Z,24.20
2022-08-30T21:30:31.828Z,19.60
2022-08-30T21:33:00.865Z,19.20
2022-08-30T21:35:48.174Z,17.60
2022-08-30T21:38:17.387Z,21.00
2022-08-30T21:40:46.232Z,18.60
2022-08-30T21:43:14.820Z,22.60
2022-08-30T21:45:45.020Z,21.00
2022-08-30T21:48:14.631Z,22.00
2022-08-30T21:50:45.744Z,21.00
2022-08-30T21:53:15.627Z,20.20
2022-08-30T21:55:48.214Z,20.00
2022-08-30T21:58:17.111Z,21.40
2022-08-30T22:00:45.498Z,22.00
2022-08-30T22:03:14.029Z,24.00
2022-08-30T22:05:51.395Z,20.60
2022-08-30T22:08:19.908Z,21.40
2022-08-30T22:10:49.047Z,22.80
2022-08-30T22:13:17.959Z,19.40
2022-08-30T22:15:46.620Z,25.00
2022-08-30T22:18:15.590Z,23.60
2022-08-30T22:20:45.421Z,20.20
2022-08-30T22:23:18.935Z,22.80
2022-08-30T22:25:47.971Z,18.80
2022-08-30T22:28:16.439Z,22.40
2022-08-30T22:30:45.295Z,23.60
2022-08-30T22:33:14.396Z,21.40
2022-08-30T22:35:43.413Z,21.60
2022-08-30T22:38:14.545Z,19.40
2022-08-30T22:40:46.504Z,23.20
2022-08-30T22:43:15.076Z,22.40
2022-08-30T22:45:43.918Z,22.80
2022-08-30T22:48:13.025Z,19.20
2022-08-30T22:50:41.714Z,18.60
2022-08-30T22:53:10.531Z,25.60
2022-08-30T22:55:42.006Z,22.80
2022-08-30T22:58:10.436Z,22.20
2022-08-30T23:00:40.757Z,24.00
2022-08-30T23:03:14.989Z,21.40
2022-08-30T23:05:44.044Z,20.60
2022-08-30T23:08:12.575Z,19.20
2022-08-30T23:10:44.367Z,23.60
2022-08-30T23:13:13.243Z,21.20
2022-08-30T23:15:41.816Z,23.80
2022-08-30T23:18:10.254Z,21.20
2022-08-30T23:20:39.468Z,24.40
2022-08-30T23:23:06.742Z,21.80
2022-08-30T23:25:52.861Z,25.60
2022-08-30T23:28:41.066Z,21.00
2022-08-30T23:31:28.797Z,19.60
2022-08-30T23:34:15.731Z,20.80
2022-08-30T23:37:02.316Z,24.40
2022-08-30T23:39:48.420Z,24.80
2022-08-30T23:42:34.535Z,21.60
2022-08-30T23:45:22.963Z,24.80
2022-08-30T23:48:08.724Z,18.20
2022-08-30T23:50:54.672Z,21.80
2022-08-30T23:53:41.202Z,22.40
2022-08-30T23:56:30.257Z,22.60
2022-08-30T23:59:16.319Z,23.00
